Time,TemperatureF,DewpointF,PressureIn,WindDirection,WindDirectionDegrees,WindSpeedMPH,WindSpeedGustMPH,Humidity,HourlyPrecipIn,Conditions,Clouds,dailyrainin,SoftwareType,DateUTC
2013-03-05 01:05:00,9.0,2.7,30.27,NNW,338,0.4,0.4,75,0.00,,,0.00,WUHU216HW,2013-03-05 08:05:00,
2013-03-05 02:05:00,8.3,2.3,30.27,NNW,338,0.4,0.4,76,0.00,,,0.00,WUHU216HW,2013-03-05 09:05:00,
2013-03-05 03:05:00,7.9,1.9,30.25,NNW,338,0.2,0.2,76,0.00,,,0.00,WUHU216HW,2013-03-05 10:05:00,
2013-03-05 04:05:00,7.0,1.0,30.24,NW,315,0.4,0.4,76,0.00,,,0.00,WUHU216HW,2013-03-05 11:05:00,
2013-03-05 05:05:00,6.3,0.5,30.23,NNW,338,1.8,1.8,77,0.00,,,0.00,WUHU216HW,2013-03-05 12:05:00,
2013-03-05 06:05:00,5.6,-0.4,30.24,WNW,293,0.0,0.0,76,0.00,,,0.00,WUHU216HW,2013-03-05 13:05:00,
2013-03-05 08:05:00,10.4,5.1,30.23,NW,315,0.4,0.4,79,0.00,,,0.00,WUHU216HW,2013-03-05 15:05:00,
2013-03-05 14:05:00,36.7,21.2,30.11,ENE,68,3.8,3.8,53,0.00,,,0.00,WUHU216HW,2013-03-05 21:05:00,
2013-03-05 15:05:00,36.4,21.2,30.08,ESE,113,1.8,1.8,54,0.00,,,0.00,WUHU216HW,2013-03-05 22:05:00,
2013-03-05 16:05:00,34.4,21.5,30.07,ENE,68,4.0,4.0,59,0.00,,,0.00,WUHU216HW,2013-03-05 23:05:00,
2013-03-05 17:05:00,32.8,21.5,30.05,ENE,68,3.4,3.4,63,0.00,,,0.00,WUHU216HW,2013-03-06 00:05:00,
2013-03-05 21:26:00,25.2,19.3,30.05,ENE,68,4.9,6.3,78,0.00,,,0.00,WUHU216HW,2013-03-06 04:26:00,
2013-03-05 21:31:00,25.0,19.4,30.04,NNE,23,6.5,6.5,79,0.00,,,0.00,WUHU216HW,2013-03-06 04:31:00,
2013-03-05 21:36:00,25.0,19.4,30.04,NE,45,4.7,6.7,79,0.00,,,0.00,WUHU216HW,2013-03-06 04:36:00,
2013-03-05 21:41:00,24.8,19.3,30.04,NNE,23,7.6,7.6,79,0.00,,,0.00,WUHU216HW,2013-03-06 04:41:00,
2013-03-05 21:46:00,24.8,19.6,30.05,North,0,4.3,7.6,80,0.00,,,0.00,WUHU216HW,2013-03-06 04:46:00,
2013-03-05 21:51:00,24.7,19.4,30.04,ENE,68,4.5,6.0,80,0.00,,,0.00,WUHU216HW,2013-03-06 04:51:00,
2013-03-05 21:57:00,24.7,19.4,30.04,NNE,23,4.0,5.6,80,0.00,,,0.00,WUHU216HW,2013-03-06 04:57:00,
2013-03-05 22:02:00,24.5,19.3,30.04,NE,45,4.0,4.9,80,0.00,,,0.00,WUHU216HW,2013-03-06 05:02:00,
2013-03-05 22:07:00,24.5,19.3,30.04,NNE,23,3.4,5.4,80,0.00,,,0.00,WUHU216HW,2013-03-06 05:07:00,
2013-03-05 22:12:00,24.3,19.1,30.04,NNE,23,3.4,5.4,80,0.00,,,0.00,WUHU216HW,2013-03-06 05:12:00,
2013-03-05 22:17:00,24.1,18.9,30.04,North,0,2.9,4.9,80,0.00,,,0.00,WUHU216HW,2013-03-06 05:17:00,
2013-03-05 22:22:00,24.1,18.9,30.04,NNE,23,4.0,4.3,80,0.00,,,0.00,WUHU216HW,2013-03-06 05:22:00,
2013-03-05 22:27:00,24.1,18.9,30.03,NNE,23,3.4,4.3,80,0.00,,,0.00,WUHU216HW,2013-03-06 05:27:00,
2013-03-05 22:32:00,24.1,18.9,30.03,NE,45,3.6,4.7,80,0.00,,,0.00,WUHU216HW,2013-03-06 05:32:00,
2013-03-05 22:37:00,23.9,19.0,30.03,NNE,23,2.0,6.0,81,0.00,,,0.00,WUHU216HW,2013-03-06 05:37:00,
2013-03-05 22:42:00,23.8,18.8,30.03,NE,45,3.6,6.0,81,0.00,,,0.00,WUHU216HW,2013-03-06 05:42:00,
2013-03-05 22:47:00,23.8,18.8,30.02,ENE,68,2.5,4.9,81,0.00,,,0.00,WUHU216HW,2013-03-06 05:47:00,
2013-03-05 22:52:00,23.8,18.8,30.02,NE,45,2.5,4.5,81,0.00,,,0.00,WUHU216HW,2013-03-06 05:52:00,
2013-03-05 22:58:00,23.6,18.6,30.02,NE,45,4.7,6.0,81,0.00,,,0.00,WUHU216HW,2013-03-06 05:58:00,
2013-03-05 23:03:00,23.4,18.5,30.02,NNE,23,3.6,6.0,81,0.00,,,0.00,WUHU216HW,2013-03-06 06:03:00,
2013-03-05 23:08:00,23.4,18.5,30.02,NNE,23,3.6,4.9,81,0.00,,,0.00,WUHU216HW,2013-03-06 06:08:00,
2013-03-05 23:13:00,23.4,18.5,30.02,NNE,23,2.5,4.9,81,0.00,,,0.00,WUHU216HW,2013-03-06 06:13:00,
2013-03-05 23:18:00,23.2,18.3,30.02,NNE,23,3.4,4.5,81,0.00,,,0.00,WUHU216HW,2013-03-06 06:18:00,
2013-03-05 23:23:00,23.2,18.3,30.01,NE,45,2.7,4.5,81,0.00,,,0.00,WUHU216HW,2013-03-06 06:23:00,
2013-03-05 23:28:00,23.0,17.8,30.01,NE,45,2.5,3.8,80,0.00,,,0.00,WUHU216HW,2013-03-06 06:28:00,
2013-03-05 23:33:00,22.9,17.6,30.01,ENE,68,1.6,3.8,80,0.00,,,0.00,WUHU216HW,2013-03-06 06:33:00,
2013-03-05 23:38:00,22.7,17.2,30.02,East,90,0.0,3.1,79,0.00,,,0.00,WUHU216HW,2013-03-06 06:38:00,
2013-03-05 23:43:00,22.7,17.2,30.02,ENE,68,0.9,1.8,79,0.00,,,0.00,WUHU216HW,2013-03-06 06:43:00,
2013-03-05 23:48:00,22.5,17.0,30.02,NNE,23,1.8,1.8,79,0.00,,,0.00,WUHU216HW,2013-03-06 06:48:00,
2013-03-05 23:53:00,22.3,16.8,30.02,North,0,0.4,1.8,79,0.00,,,0.00,WUHU216HW,2013-03-06 06:53:00,
2013-03-05 23:59:00,22.1,16.3,30.02,NNE,23,0.4,0.7,78,0.00,,,0.00,WUHU216HW,2013-03-06 06:59:00,